KTTN/TTN METAR and TAF weather

Enter ICAO airport designator
Station Type Date Time Source
KTTN METAR 2019/07/17 11:53 UTC NOAA

KTTN 171153Z 23003KT 9SM CLR 26/24 A2998 RMK AO2 SLP143 T02560239 10256 20233 51003


Station Type Date Time Source
KTTN Decoded METAR 2019/07/17 11:53 UTC NOAA

TRENTON MERCER COUNTY AIRPORT , NJ, United States (KTTN) 40-17N 074-49W 59M
Jul 17, 2019 - 07:53 AM EDT / 2019.07.17 1153 UTC
Wind: from the SW (230 degrees) at 3 MPH (3 KT):0
Visibility: 9 mile(s):0
Sky conditions: clear
Temperature: 78.1 F (25.6 C)
Dew Point: 75.0 F (23.9 C)
Relative Humidity: 90%
Pressure (altimeter): 29.98 in. Hg (1015 hPa)
Pressure tendency: 0.01 inches (0.3 hPa) higher than three hours ago
ob: KTTN 171153Z 23003KT 9SM CLR 26/24 A2998 RMK AO2 SLP143 T02560239 10256 20233 51003
cycle: 12

Station Type Date Time Source
KTTN TAF 2019/07/17 12:22 UTC NOAA

TAF KTTN 171120Z 1712/1812 VRB03KT P6SM FEW150
FM171400 25007KT P6SM FEW060 SCT250
FM171900 23008KT P6SM FEW060 BKN150
TEMPO 1719/1723 3SM TSRA BR BKN060CB
FM172300 23007KT 4SM SHRA BR VCTS BKN060CB BKN150 PROB30 1723/1804 3SM TSRA BKN015CB
FM180400 VRB03KT 4SM BR OVC008

Example: see airport list